createdAt,value
2022-08-11T00:00:46.235Z,1.67
2022-08-11T00:02:52.402Z,1.60
2022-08-11T00:04:56.396Z,4.65
2022-08-11T00:07:03.056Z,2.85
2022-08-11T00:09:08.487Z,2.35
2022-08-11T00:11:11.989Z,1.73
2022-08-11T00:13:16.842Z,4.72
2022-08-11T00:15:19.299Z,4.05
2022-08-11T00:17:27.652Z,5.05
2022-08-11T00:20:13.045Z,1.60
2022-08-11T00:22:05.274Z,1.90
2022-08-11T00:24:08.878Z,5.65
2022-08-11T00:26:11.777Z,4.13
2022-08-11T00:28:32.674Z,1.70
2022-08-11T00:30:40.576Z,1.98
2022-08-11T00:32:44.813Z,1.80
2022-08-11T00:34:47.385Z,1.95
2022-08-11T00:37:02.224Z,2.28
2022-08-11T00:39:07.494Z,3.88
2022-08-11T00:41:21.710Z,5.63
2022-08-11T00:43:49.517Z,6.15
2022-08-11T00:46:09.509Z,2.30
2022-08-11T00:48:22.807Z,2.13
2022-08-11T00:50:41.191Z,1.60
2022-08-11T00:52:58.083Z,2.42
2022-08-11T00:55:34.152Z,4.20
2022-08-11T00:57:54.751Z,2.13
2022-08-11T01:00:11.622Z,1.75
2022-08-11T01:02:18.429Z,2.05
2022-08-11T01:04:52.332Z,2.58
2022-08-11T01:07:09.650Z,1.80
2022-08-11T01:09:30.205Z,1.50
2022-08-11T01:11:56.605Z,1.90
2022-08-11T01:14:10.227Z,3.47
2022-08-11T01:16:24.054Z,2.00
2022-08-11T01:18:53.679Z,3.35
2022-08-11T01:21:23.686Z,1.80
2022-08-11T01:23:49.615Z,1.98
2022-08-11T01:25:57.948Z,2.65
2022-08-11T01:28:14.853Z,3.45
2022-08-11T01:30:34.840Z,1.73
2022-08-11T01:32:55.395Z,1.70
2022-08-11T01:35:25.015Z,4.03
2022-08-11T01:37:54.509Z,2.38
2022-08-11T01:40:23.800Z,2.00
2022-08-11T01:42:52.729Z,2.35
2022-08-11T01:45:18.100Z,2.50
2022-08-11T01:47:53.437Z,1.83
2022-08-11T01:50:09.877Z,3.58
2022-08-11T01:52:31.046Z,2.05
2022-08-11T01:55:15.310Z,2.50
2022-08-11T01:57:31.053Z,2.58
2022-08-11T01:59:37.514Z,2.50
2022-08-11T02:01:58.402Z,2.60
2022-08-11T02:04:12.344Z,1.80
2022-08-11T02:06:51.490Z,1.80
2022-08-11T02:09:10.596Z,2.08
2022-08-11T02:11:37.648Z,2.00
2022-08-11T02:13:49.244Z,4.25
2022-08-11T02:15:56.890Z,5.55
2022-08-11T02:17:58.747Z,2.58
2022-08-11T02:20:42.379Z,2.92
2022-08-11T02:24:04.126Z,1.95
2022-08-11T02:25:58.573Z,4.32
2022-08-11T02:28:11.145Z,5.05
2022-08-11T02:30:17.943Z,5.20
2022-08-11T02:32:48.500Z,3.00
2022-08-11T02:35:00.167Z,2.25
2022-08-11T02:37:24.423Z,2.03
2022-08-11T02:39:39.573Z,2.10
2022-08-11T02:42:35.165Z,3.17
2022-08-11T02:44:36.862Z,2.17
2022-08-11T02:46:46.407Z,2.55
2022-08-11T02:49:26.384Z,2.25
2022-08-11T02:51:59.155Z,1.70
2022-08-11T02:54:22.476Z,2.80
2022-08-11T02:56:47.337Z,3.05
2022-08-11T02:59:11.591Z,2.05
2022-08-11T03:01:19.889Z,2.33
2022-08-11T03:03:26.581Z,2.17
2022-08-11T03:05:38.151Z,2.47
2022-08-11T03:08:10.517Z,2.75
2022-08-11T03:10:27.316Z,2.75
2022-08-11T03:13:15.692Z,2.08
2022-08-11T03:16:06.710Z,2.08
2022-08-11T03:18:17.545Z,3.05
2022-08-11T03:20:38.196Z,1.80
2022-08-11T03:22:52.358Z,2.35
2022-08-11T03:25:03.132Z,1.55
2022-08-11T03:27:11.367Z,1.83
2022-08-11T03:29:37.290Z,2.90
2022-08-11T03:32:14.996Z,2.08
2022-08-11T03:34:22.037Z,2.95
2022-08-11T03:37:15.433Z,2.60
2022-08-11T03:39:03.821Z,2.20
2022-08-11T03:42:01.646Z,3.03
2022-08-11T03:44:37.720Z,2.88
2022-08-11T03:46:59.798Z,2.30
2022-08-11T03:49:11.421Z,1.98
2022-08-11T03:51:44.963Z,3.05
2022-08-11T03:54:17.080Z,2.08
2022-08-11T03:56:19.263Z,2.22
2022-08-11T03:58:26.923Z,2.15
2022-08-11T04:00:47.407Z,5.72
2022-08-11T04:03:08.222Z,3.33
2022-08-11T04:05:15.526Z,6.47
2022-08-11T04:07:41.947Z,3.30
2022-08-11T04:10:31.091Z,7.85
2022-08-11T04:12:51.695Z,3.88
2022-08-11T04:15:17.783Z,2.47
2022-08-11T04:17:57.788Z,3.67
2022-08-11T04:20:30.487Z,4.90
2022-08-11T04:22:41.494Z,2.75
2022-08-11T04:25:16.689Z,2.25
2022-08-11T04:27:43.140Z,1.77
2022-08-11T04:30:09.227Z,2.38
2022-08-11T04:32:35.477Z,4.72
2022-08-11T04:34:55.139Z,2.40
2022-08-11T04:37:34.852Z,11.30
2022-08-11T04:39:56.330Z,3.33
2022-08-11T04:42:58.288Z,4.22
2022-08-11T04:45:37.153Z,5.10
2022-08-11T04:48:22.154Z,10.05
2022-08-11T04:51:17.239Z,20.20
2022-08-11T04:53:47.020Z,45.50
2022-08-11T04:56:36.069Z,65.47
2022-08-11T04:58:56.559Z,53.03
2022-08-11T05:01:42.654Z,43.83
2022-08-11T05:04:32.079Z,13.45
2022-08-11T05:07:04.839Z,22.55
2022-08-11T05:09:24.768Z,17.85
2022-08-11T05:12:08.219Z,23.63
2022-08-11T05:14:30.866Z,27.10
2022-08-11T05:17:05.246Z,27.48
2022-08-11T05:19:25.692Z,25.20
2022-08-11T05:21:46.270Z,15.77
2022-08-11T05:24:13.717Z,4.18
2022-08-11T05:26:47.076Z,7.80
2022-08-11T05:29:20.271Z,3.47
2022-08-11T05:31:52.766Z,10.48
2022-08-11T05:34:18.809Z,4.93
2022-08-11T05:36:42.276Z,4.63
2022-08-11T05:39:12.055Z,5.97
2022-08-11T05:41:33.540Z,6.97
2022-08-11T05:44:20.262Z,9.65
2022-08-11T05:46:43.039Z,6.45
2022-08-11T05:49:04.280Z,3.10
2022-08-11T05:51:30.507Z,3.67
2022-08-11T05:53:51.101Z,3.17
2022-08-11T05:56:11.890Z,8.73
2022-08-11T05:58:13.737Z,5.78
2022-08-11T06:00:15.952Z,2.70
2022-08-11T06:02:18.056Z,2.17
2022-08-11T06:04:22.667Z,4.10
2022-08-11T06:06:28.352Z,2.63
2022-08-11T06:08:31.535Z,3.53
2022-08-11T06:10:35.415Z,2.08
2022-08-11T06:12:38.037Z,5.47
2022-08-11T06:14:46.149Z,12.48
2022-08-11T06:16:49.813Z,2.70
2022-08-11T06:18:51.861Z,2.47
2022-08-11T06:20:58.103Z,5.65
2022-08-11T06:23:03.891Z,2.55
2022-08-11T06:25:07.310Z,2.88
2022-08-11T06:27:12.726Z,6.03
2022-08-11T06:29:18.577Z,2.22
2022-08-11T06:31:25.395Z,7.00
2022-08-11T06:33:51.180Z,10.43
2022-08-11T06:36:17.193Z,4.60
2022-08-11T06:38:37.936Z,3.38
2022-08-11T06:41:09.932Z,2.63
2022-08-11T06:43:23.373Z,2.15
2022-08-11T06:45:33.026Z,3.28
2022-08-11T06:47:35.491Z,7.25
2022-08-11T06:49:58.782Z,1.92
2022-08-11T06:52:04.557Z,3.13
2022-08-11T06:54:07.574Z,3.05
2022-08-11T06:56:29.322Z,4.15
2022-08-11T06:58:58.088Z,6.90
2022-08-11T07:01:01.540Z,1.98
2022-08-11T07:03:08.742Z,4.18
2022-08-11T07:05:28.701Z,2.13
2022-08-11T07:08:34.139Z,1.52
2022-08-11T07:11:17.113Z,3.42
2022-08-11T07:13:46.313Z,2.90
2022-08-11T07:16:12.464Z,1.90
2022-08-11T07:18:39.305Z,2.78
2022-08-11T07:21:02.421Z,2.05
2022-08-11T07:23:23.958Z,2.05
2022-08-11T07:25:44.087Z,3.17
2022-08-11T07:28:15.782Z,2.70
2022-08-11T07:30:18.110Z,3.08
2022-08-11T07:32:27.572Z,3.08
2022-08-11T07:34:37.133Z,2.72
2022-08-11T07:36:45.323Z,6.35
2022-08-11T07:38:51.408Z,2.85
2022-08-11T07:40:58.447Z,4.13
2022-08-11T07:43:01.165Z,2.65
2022-08-11T07:45:24.572Z,3.65
2022-08-11T07:47:46.390Z,5.57
2022-08-11T07:50:07.875Z,2.67
2022-08-11T07:52:28.311Z,4.72
2022-08-11T07:54:33.336Z,2.70
2022-08-11T07:57:07.620Z,3.38
2022-08-11T07:59:19.817Z,2.40
2022-08-11T08:01:44.815Z,3.33
2022-08-11T08:04:05.224Z,2.28
2022-08-11T08:06:35.872Z,4.00
2022-08-11T08:08:59.363Z,1.75
2022-08-11T08:11:27.160Z,3.88
2022-08-11T08:13:47.902Z,3.08
2022-08-11T08:16:12.337Z,4.95
2022-08-11T08:18:26.116Z,2.45
2022-08-11T08:20:52.082Z,3.88
2022-08-11T08:22:59.601Z,4.65
2022-08-11T08:25:01.692Z,1.60
2022-08-11T08:27:03.978Z,2.45
2022-08-11T08:29:36.332Z,2.85
2022-08-11T08:31:38.132Z,4.93
2022-08-11T08:33:41.074Z,7.88
2022-08-11T08:35:54.066Z,2.47
2022-08-11T08:37:59.031Z,3.13
2022-08-11T08:40:00.846Z,7.13
2022-08-11T08:42:07.511Z,6.72
2022-08-11T08:44:36.772Z,1.60
2022-08-11T08:46:36.770Z,1.40
2022-08-11T08:48:38.903Z,2.20
2022-08-11T08:51:04.338Z,5.28
2022-08-11T08:53:06.517Z,5.30
2022-08-11T08:55:11.124Z,4.30
2022-08-11T08:57:14.282Z,5.60
2022-08-11T08:59:16.127Z,3.80
2022-08-11T09:01:19.164Z,3.47
2022-08-11T09:04:02.895Z,5.63
2022-08-11T09:05:44.027Z,2.42
2022-08-11T09:07:47.645Z,2.15
2022-08-11T09:09:51.511Z,9.73
2022-08-11T09:11:53.687Z,4.15
2022-08-11T09:14:05.181Z,2.20
2022-08-11T09:16:09.455Z,4.00
2022-08-11T09:18:12.374Z,4.50
2022-08-11T09:20:17.760Z,5.90
2022-08-11T09:22:38.702Z,2.50
2022-08-11T09:24:59.602Z,5.53
2022-08-11T09:27:06.511Z,5.07
2022-08-11T09:29:10.441Z,1.23
2022-08-11T09:31:13.743Z,9.70
2022-08-11T09:33:16.998Z,2.55
2022-08-11T09:35:19.440Z,2.72
2022-08-11T09:37:55.729Z,3.90
2022-08-11T09:40:17.185Z,3.10
2022-08-11T09:42:23.333Z,2.30
2022-08-11T09:44:45.758Z,4.20
2022-08-11T09:46:49.110Z,2.78
2022-08-11T09:48:54.496Z,2.75
2022-08-11T09:50:59.654Z,3.67
2022-08-11T09:53:36.743Z,3.67
2022-08-11T09:55:26.245Z,6.32
2022-08-11T09:57:46.473Z,3.08
2022-08-11T09:59:48.315Z,8.00
2022-08-11T10:01:55.245Z,1.50
2022-08-11T10:04:01.453Z,3.53
2022-08-11T10:06:34.301Z,4.95
2022-08-11T10:08:39.629Z,3.53
2022-08-11T10:10:41.915Z,3.60
2022-08-11T10:12:53.493Z,2.65
2022-08-11T10:15:16.145Z,5.22
2022-08-11T10:17:20.289Z,2.55
2022-08-11T10:19:22.330Z,1.55
2022-08-11T10:21:42.911Z,5.10
2022-08-11T10:24:05.721Z,2.90
2022-08-11T10:26:26.871Z,1.65
2022-08-11T10:28:50.028Z,3.75
2022-08-11T10:31:18.891Z,3.13
2022-08-11T10:33:41.762Z,3.38
2022-08-11T10:36:00.277Z,4.20
2022-08-11T10:38:07.277Z,2.30
2022-08-11T10:40:15.994Z,2.08
2022-08-11T10:42:57.294Z,3.83
2022-08-11T10:44:59.496Z,1.30
2022-08-11T10:47:21.010Z,2.33
2022-08-11T10:49:23.314Z,2.33
2022-08-11T10:51:51.042Z,1.63
2022-08-11T10:54:12.782Z,3.15
2022-08-11T10:56:33.893Z,1.50
2022-08-11T10:58:49.752Z,2.17
2022-08-11T11:00:57.160Z,2.17
2022-08-11T11:03:22.855Z,8.68
2022-08-11T11:05:29.697Z,4.00
2022-08-11T11:07:42.851Z,1.92
2022-08-11T11:09:51.249Z,4.63
2022-08-11T11:12:16.528Z,4.65
2022-08-11T11:14:46.040Z,8.63
2022-08-11T11:17:11.681Z,4.75
2022-08-11T11:19:20.822Z,3.00
2022-08-11T11:21:24.459Z,2.50
2022-08-11T11:23:39.602Z,5.78
2022-08-11T11:26:09.975Z,1.88
2022-08-11T11:28:26.943Z,2.10
2022-08-11T11:30:37.036Z,3.70
2022-08-11T11:32:57.078Z,2.15
2022-08-11T11:35:04.591Z,3.88
2022-08-11T11:37:06.515Z,2.90
2022-08-11T11:39:08.852Z,2.35
2022-08-11T11:41:25.718Z,1.90
2022-08-11T11:43:27.794Z,1.25
2022-08-11T11:45:30.185Z,2.08
2022-08-11T11:47:33.345Z,2.38
2022-08-11T11:49:39.517Z,1.98
2022-08-11T11:51:41.792Z,2.88
2022-08-11T11:53:45.524Z,1.65
2022-08-11T11:55:47.262Z,1.30
2022-08-11T11:58:07.817Z,1.30
2022-08-11T12:00:33.053Z,15.73
2022-08-11T12:02:36.668Z,3.97
2022-08-11T12:04:41.613Z,5.82
2022-08-11T12:06:43.610Z,1.70
2022-08-11T12:08:49.255Z,3.08
2022-08-11T12:11:16.348Z,1.40
2022-08-11T12:13:37.614Z,1.48
2022-08-11T12:16:31.823Z,4.13
2022-08-11T12:18:02.122Z,12.70
2022-08-11T12:20:04.748Z,2.58
2022-08-11T12:22:45.010Z,3.53
2022-08-11T12:25:05.545Z,1.88
2022-08-11T12:27:24.990Z,4.22
2022-08-11T12:29:27.963Z,1.67
2022-08-11T12:31:30.020Z,2.42
2022-08-11T12:33:33.298Z,2.65
2022-08-11T12:35:37.226Z,2.40
2022-08-11T12:37:45.634Z,4.00
2022-08-11T12:40:16.310Z,12.25
2022-08-11T12:43:03.935Z,2.10
2022-08-11T12:45:41.669Z,5.35
2022-08-11T12:48:58.679Z,1.33
2022-08-11T12:51:05.212Z,2.30
2022-08-11T12:53:08.075Z,5.15
2022-08-11T12:55:13.463Z,1.10
2022-08-11T12:57:44.239Z,2.78
2022-08-11T13:00:04.889Z,8.13
2022-08-11T13:02:25.115Z,1.48
2022-08-11T13:04:50.988Z,1.35
2022-08-11T13:06:53.087Z,2.63
2022-08-11T13:09:01.079Z,1.45
2022-08-11T13:11:22.761Z,2.72
2022-08-11T13:13:54.989Z,1.33
2022-08-11T13:15:48.217Z,4.32
2022-08-11T13:17:51.712Z,2.13
2022-08-11T13:19:53.611Z,2.30
2022-08-11T13:21:55.471Z,2.22
2022-08-11T13:24:01.752Z,2.22
2022-08-11T13:26:05.105Z,2.05
2022-08-11T13:28:07.315Z,14.13
2022-08-11T13:30:27.916Z,16.67
2022-08-11T13:32:29.727Z,2.85
2022-08-11T13:34:31.849Z,1.83
2022-08-11T13:36:33.621Z,6.93
2022-08-11T13:38:35.701Z,2.53
2022-08-11T13:40:55.241Z,2.55
2022-08-11T13:42:59.311Z,3.58
2022-08-11T13:45:01.542Z,4.47
2022-08-11T13:47:04.781Z,2.35
2022-08-11T13:49:10.992Z,3.70
2022-08-11T13:51:34.511Z,8.85
2022-08-11T13:53:36.978Z,3.67
2022-08-11T13:55:52.022Z,1.30
2022-08-11T13:58:06.241Z,1.58
2022-08-11T14:00:13.223Z,7.05
2022-08-11T14:02:30.637Z,2.50
2022-08-11T14:04:58.546Z,3.33
2022-08-11T14:07:03.793Z,2.50
2022-08-11T14:09:09.506Z,6.68
2022-08-11T14:12:23.023Z,1.98
2022-08-11T14:13:53.059Z,13.18
2022-08-11T14:15:57.431Z,2.83
2022-08-11T14:18:11.790Z,3.25
2022-08-11T14:20:38.146Z,6.35
2022-08-11T14:22:41.527Z,8.07
2022-08-11T14:24:49.554Z,2.85
2022-08-11T14:26:51.670Z,2.03
2022-08-11T14:28:57.350Z,2.88
2022-08-11T14:31:01.768Z,1.15
2022-08-11T14:33:16.765Z,1.83
2022-08-11T14:35:20.267Z,4.90
2022-08-11T14:37:24.180Z,1.75
2022-08-11T14:39:27.692Z,1.85
2022-08-11T14:42:10.898Z,1.45
2022-08-11T14:44:52.997Z,2.13
2022-08-11T14:47:23.277Z,2.25
2022-08-11T14:49:28.398Z,2.97
2022-08-11T14:51:30.627Z,6.43
2022-08-11T14:53:32.678Z,3.55
2022-08-11T14:56:01.525Z,4.43
2022-08-11T14:58:03.854Z,2.67
2022-08-11T15:00:08.254Z,3.00
2022-08-11T15:02:29.324Z,2.58
2022-08-11T15:04:37.892Z,2.60
2022-08-11T15:06:43.325Z,4.15
2022-08-11T15:08:56.485Z,7.45
2022-08-11T15:10:58.249Z,6.65
2022-08-11T15:13:01.191Z,5.43
2022-08-11T15:15:24.218Z,2.13
2022-08-11T15:17:29.454Z,2.78
2022-08-11T15:20:03.141Z,1.98
2022-08-11T15:22:27.789Z,6.72
2022-08-11T15:24:30.896Z,7.40
2022-08-11T15:26:57.388Z,2.28
2022-08-11T15:29:21.666Z,2.65
2022-08-11T15:31:29.328Z,2.22
2022-08-11T15:33:50.725Z,2.75
2022-08-11T15:36:12.448Z,2.65
2022-08-11T15:38:14.423Z,1.63
2022-08-11T15:40:43.466Z,5.18
2022-08-11T15:43:12.932Z,3.70
2022-08-11T15:45:34.815Z,5.45
2022-08-11T15:47:41.671Z,2.25
2022-08-11T15:50:10.397Z,3.80
2022-08-11T15:52:10.416Z,4.82
2022-08-11T15:54:15.874Z,2.75
2022-08-11T15:56:18.564Z,3.85
2022-08-11T15:58:40.646Z,2.33
2022-08-11T16:01:04.350Z,10.25
2022-08-11T16:04:05.975Z,2.65
2022-08-11T16:05:53.836Z,3.13
2022-08-11T16:07:55.946Z,3.38
2022-08-11T16:10:10.836Z,2.95
2022-08-11T16:12:23.090Z,7.15
2022-08-11T16:14:43.955Z,3.38
2022-08-11T16:16:46.600Z,4.50
2022-08-11T16:18:52.085Z,2.47
2022-08-11T16:20:56.057Z,2.50
2022-08-11T16:23:02.686Z,3.55
2022-08-11T16:27:02.159Z,4.78
2022-08-11T16:27:30.360Z,3.15
2022-08-11T16:29:32.406Z,1.63
2022-08-11T16:31:35.844Z,4.78
2022-08-11T16:33:49.798Z,3.97
2022-08-11T16:36:12.758Z,6.10
2022-08-11T16:38:33.186Z,1.95
2022-08-11T16:40:35.660Z,3.03
2022-08-11T16:43:08.810Z,1.50
2022-08-11T16:45:30.758Z,2.22
2022-08-11T16:48:02.083Z,3.72
2022-08-11T16:49:55.080Z,4.15
2022-08-11T16:51:56.902Z,4.93
2022-08-11T16:54:05.300Z,9.00
2022-08-11T16:56:08.676Z,3.30
2022-08-11T16:58:29.816Z,1.33
2022-08-11T17:00:33.528Z,2.17
2022-08-11T17:03:01.981Z,3.55
2022-08-11T17:05:26.985Z,4.82
2022-08-11T17:07:48.907Z,1.35
2022-08-11T17:10:44.541Z,5.40
2022-08-11T17:12:52.891Z,6.07
2022-08-11T17:14:58.181Z,4.00
2022-08-11T17:17:01.427Z,1.30
2022-08-11T17:19:07.226Z,2.63
2022-08-11T17:22:02.580Z,2.28
2022-08-11T17:24:09.623Z,1.25
2022-08-11T17:26:11.480Z,2.58
2022-08-11T17:28:14.537Z,1.52
2022-08-11T17:30:16.457Z,2.08
2022-08-11T17:32:57.184Z,2.03
2022-08-11T17:35:29.752Z,3.00
2022-08-11T17:37:33.243Z,2.17
2022-08-11T17:39:35.865Z,2.85
2022-08-11T17:41:57.808Z,1.48
2022-08-11T17:44:18.264Z,3.53
2022-08-11T17:46:38.802Z,1.73
2022-08-11T17:48:47.863Z,3.13
2022-08-11T17:50:51.749Z,2.33
2022-08-11T17:53:12.379Z,2.08
2022-08-11T17:55:51.819Z,6.97
2022-08-11T17:58:14.308Z,5.68
2022-08-11T18:00:17.181Z,1.02
2022-08-11T18:02:58.872Z,3.75
2022-08-11T18:05:01.354Z,1.42
2022-08-11T18:07:03.209Z,8.80
2022-08-11T18:09:32.044Z,2.40
2022-08-11T18:12:10.141Z,1.92
2022-08-11T18:14:33.689Z,2.30
2022-08-11T18:16:54.159Z,6.25
2022-08-11T18:19:14.447Z,3.95
2022-08-11T18:21:36.075Z,2.83
2022-08-11T18:23:56.702Z,2.00
2022-08-11T18:26:18.890Z,2.45
2022-08-11T18:28:43.516Z,3.80
2022-08-11T18:31:08.522Z,8.15
2022-08-11T18:34:03.864Z,1.90
2022-08-11T18:36:17.349Z,7.35
2022-08-11T18:38:39.043Z,3.67
2022-08-11T18:40:59.787Z,1.00
2022-08-11T18:43:27.152Z,7.60
2022-08-11T18:45:47.769Z,1.40
2022-08-11T18:48:22.606Z,2.60
2022-08-11T18:50:47.310Z,2.53
2022-08-11T18:53:24.959Z,14.20
2022-08-11T18:55:45.762Z,7.30
2022-08-11T18:58:07.027Z,1.90
2022-08-11T19:00:28.114Z,2.72
2022-08-11T19:02:50.263Z,13.73
2022-08-11T19:05:11.225Z,2.05
2022-08-11T19:07:31.916Z,3.60
2022-08-11T19:09:54.029Z,4.55
2022-08-11T19:12:15.788Z,1.70
2022-08-11T19:14:37.250Z,2.40
2022-08-11T19:16:59.624Z,1.92
2022-08-11T19:19:21.221Z,8.82
2022-08-11T19:21:42.219Z,2.63
2022-08-11T19:24:04.080Z,3.00
2022-08-11T19:26:27.054Z,2.92
2022-08-11T19:28:48.080Z,2.50
2022-08-11T19:31:09.461Z,5.05
2022-08-11T19:34:00.233Z,2.15
2022-08-11T19:36:10.611Z,4.78
2022-08-11T19:38:31.311Z,2.80
2022-08-11T19:40:52.383Z,2.80
2022-08-11T19:43:23.696Z,2.35
2022-08-11T19:45:52.772Z,2.08
2022-08-11T19:48:31.164Z,1.60
2022-08-11T19:50:53.173Z,2.15
2022-08-11T19:53:17.350Z,3.17
2022-08-11T19:55:38.412Z,2.00
2022-08-11T19:58:01.629Z,1.80
2022-08-11T20:00:24.776Z,4.32
2022-08-11T20:02:50.965Z,2.10
2022-08-11T20:05:11.235Z,3.75
2022-08-11T20:07:32.254Z,2.38
2022-08-11T20:10:05.542Z,1.73
2022-08-11T20:12:27.987Z,2.58
2022-08-11T20:14:51.395Z,2.00
2022-08-11T20:17:15.799Z,2.72
2022-08-11T20:19:56.565Z,4.10
2022-08-11T20:22:17.445Z,6.53
2022-08-11T20:24:38.483Z,2.22
2022-08-11T20:26:58.980Z,1.88
2022-08-11T20:29:19.392Z,2.35
2022-08-11T20:31:40.690Z,2.40
2022-08-11T20:34:02.418Z,3.95
2022-08-11T20:36:23.793Z,4.38
2022-08-11T20:38:45.066Z,3.55
2022-08-11T20:41:05.526Z,4.72
2022-08-11T20:44:06.362Z,3.38
2022-08-11T20:46:10.133Z,3.67
2022-08-11T20:48:31.293Z,2.00
2022-08-11T20:50:52.450Z,2.85
2022-08-11T20:53:13.220Z,7.63
2022-08-11T20:55:46.272Z,1.60
2022-08-11T20:58:18.800Z,1.52
2022-08-11T21:00:40.586Z,2.90
2022-08-11T21:03:35.268Z,11.02
2022-08-11T21:06:08.554Z,1.80
2022-08-11T21:08:31.692Z,2.88
2022-08-11T21:10:56.351Z,1.75
2022-08-11T21:13:26.412Z,4.63
2022-08-11T21:16:02.942Z,4.20
2022-08-11T21:18:28.212Z,2.15
2022-08-11T21:20:50.647Z,4.13
2022-08-11T21:23:23.584Z,9.60
2022-08-11T21:25:46.014Z,1.90
2022-08-11T21:28:09.018Z,3.53
2022-08-11T21:30:29.483Z,2.08
2022-08-11T21:32:50.302Z,3.63
2022-08-11T21:35:11.393Z,2.53
2022-08-11T21:37:33.147Z,1.80
2022-08-11T21:39:54.905Z,2.63
2022-08-11T21:42:15.438Z,2.78
2022-08-11T21:44:36.944Z,3.72
2022-08-11T21:46:57.444Z,2.00
2022-08-11T21:49:18.661Z,2.85
2022-08-11T21:51:44.523Z,3.88
2022-08-11T21:54:05.600Z,2.55
2022-08-11T21:56:27.425Z,3.10
2022-08-11T21:58:49.159Z,5.97
2022-08-11T22:01:09.667Z,2.70
2022-08-11T22:03:34.426Z,1.50
2022-08-11T22:06:11.281Z,7.82
2022-08-11T22:08:32.282Z,1.70
2022-08-11T22:10:52.694Z,2.25
2022-08-11T22:13:13.109Z,1.67
2022-08-11T22:15:33.396Z,4.93
2022-08-11T22:17:57.462Z,2.70
2022-08-11T22:20:19.492Z,1.77
2022-08-11T22:22:52.594Z,2.17
2022-08-11T22:25:16.616Z,1.40
2022-08-11T22:27:39.377Z,3.58
2022-08-11T22:29:59.872Z,1.88
2022-08-11T22:32:20.548Z,3.15
2022-08-11T22:34:49.161Z,3.25
2022-08-11T22:37:26.856Z,4.35
2022-08-11T22:40:01.767Z,2.03
2022-08-11T22:42:24.176Z,2.63
2022-08-11T22:44:54.322Z,1.90
2022-08-11T22:47:18.963Z,1.73
2022-08-11T22:49:42.572Z,2.22
2022-08-11T22:52:18.944Z,1.67
2022-08-11T22:54:40.792Z,2.08
2022-08-11T22:57:01.735Z,6.32
2022-08-11T22:59:22.338Z,2.05
2022-08-11T23:01:55.459Z,1.75
2022-08-11T23:04:19.570Z,2.25
2022-08-11T23:06:40.508Z,2.17
2022-08-11T23:09:01.124Z,4.35
2022-08-11T23:11:21.749Z,2.30
2022-08-11T23:13:42.545Z,7.68
2022-08-11T23:16:03.697Z,3.95
2022-08-11T23:18:24.263Z,3.70
2022-08-11T23:20:47.449Z,5.30
2022-08-11T23:23:16.030Z,1.83
2022-08-11T23:25:36.704Z,1.90
2022-08-11T23:27:57.588Z,3.58
2022-08-11T23:30:19.342Z,2.67
2022-08-11T23:32:41.367Z,2.72
2022-08-11T23:35:38.789Z,1.90
2022-08-11T23:37:44.188Z,3.90
2022-08-11T23:40:04.925Z,3.65
2022-08-11T23:42:25.114Z,2.53
2022-08-11T23:44:45.670Z,3.30
2022-08-11T23:47:08.208Z,4.65
2022-08-11T23:49:29.754Z,4.43
2022-08-11T23:51:50.253Z,3.03
2022-08-11T23:54:11.130Z,3.25
2022-08-11T23:56:31.859Z,3.65
2022-08-11T23:58:53.685Z,5.97
